Time;durP1;ratioP1;P1;durP2;ratioP2;P2;SDS_P1;SDS_P2;PMS_P1;PMS_P2;Temp;Humidity;BMP_temperature;BMP_pressure;BME280_temperature;BME280_humidity;BME280_pressure;Samples;Min_cycle;Max_cycle;Signal;HPM_P1;HPM_P2
2022/06/15 00:01:20;;;;;;;7.63;4.83;;;14.80;99.90;;;;;;5041512;28;20213;-79
2022/06/15 00:03:47;;;;;;;9.57;6.20;;;14.80;99.90;;;;;;5035405;28;20342;-79
2022/06/15 00:06:26;;;;;;;8.67;5.37;;;14.70;99.90;;;;;;5041508;28;20618;-79
2022/06/15 00:08:56;;;;;;;7.43;5.47;;;14.70;99.90;;;;;;5040207;28;20244;-78
2022/06/15 00:11:26;;;;;;;9.33;5.27;;;14.70;99.90;;;;;;5037779;28;20257;-79
2022/06/15 00:13:56;;;;;;;8.47;5.70;;;14.70;99.90;;;;;;5041055;28;20346;-79
2022/06/15 00:16:23;;;;;;;8.53;5.70;;;14.60;99.90;;;;;;5038044;28;20344;-77
2022/06/15 00:18:51;;;;;;;10.37;5.27;;;14.60;99.90;;;;;;5039443;28;20209;-80
2022/06/15 00:21:19;;;;;;;13.13;6.50;;;14.60;99.90;;;;;;5039824;28;20205;-79
2022/06/15 00:23:47;;;;;;;9.83;6.60;;;14.50;99.90;;;;;;5037618;28;20279;-80
2022/06/15 00:26:14;;;;;;;9.60;6.13;;;14.50;99.90;;;;;;5039861;28;20286;-80
2022/06/15 00:28:41;;;;;;;13.87;6.53;;;14.50;99.90;;;;;;5039307;28;20265;-79
2022/06/15 00:31:09;;;;;;;10.77;7.10;;;14.50;99.90;;;;;;5037788;28;20274;-78
2022/06/15 00:33:36;;;;;;;12.23;7.00;;;14.30;99.90;;;;;;5041692;28;20210;-78
2022/06/15 00:36:10;;;;;;;10.07;6.70;;;14.20;99.90;;;;;;5037655;28;20240;-79
2022/06/15 00:38:39;;;;;;;8.23;6.97;;;14.20;99.90;;;;;;5039902;28;20208;-79
2022/06/15 00:41:09;;;;;;;10.10;7.40;;;14.10;99.90;;;;;;5035935;28;20555;-78
2022/06/15 00:43:44;;;;;;;9.93;7.00;;;14.10;99.90;;;;;;5037696;28;20952;-79
2022/06/15 00:46:25;;;;;;;8.87;6.30;;;14.10;99.90;;;;;;5038051;28;20237;-79
2022/06/15 00:48:58;;;;;;;10.90;6.80;;;14.00;99.90;;;;;;5037512;28;20697;-79
2022/06/15 00:51:25;;;;;;;10.30;6.50;;;13.90;99.90;;;;;;5039826;28;20208;-79
2022/06/15 00:53:55;;;;;;;10.57;7.57;;;14.00;99.90;;;;;;5039354;28;20212;-80
2022/06/15 00:56:22;;;;;;;12.13;6.47;;;13.90;99.90;;;;;;5038038;28;20221;-81
2022/06/15 00:58:52;;;;;;;11.43;6.90;;;13.90;99.90;;;;;;5040955;28;20205;-79
2022/06/15 01:01:19;;;;;;;14.43;8.03;;;13.90;99.90;;;;;;5039040;28;20208;-80
2022/06/15 01:03:49;;;;;;;11.63;6.90;;;13.90;99.90;;;;;;5036563;28;20313;-78
2022/06/15 01:06:47;;;;;;;17.57;7.93;;;13.80;99.90;;;;;;5041112;28;20707;-79
2022/06/15 01:09:20;;;;;;;12.33;7.37;;;13.80;99.90;;;;;;5041010;28;20311;-79
2022/06/15 01:12:02;;;;;;;10.50;7.20;;;13.70;99.90;;;;;;5038222;28;20661;-80
2022/06/15 01:14:37;;;;;;;9.77;7.10;;;13.70;99.90;;;;;;5037332;28;20649;-78
2022/06/15 01:17:22;;;;;;;9.93;7.73;;;13.70;99.90;;;;;;5041138;28;20281;-79
2022/06/15 01:20:19;;;;;;;9.17;6.90;;;13.60;99.90;;;;;;5038220;28;20522;-78
2022/06/15 01:23:11;;;;;;;10.70;7.47;;;13.60;99.90;;;;;;5037308;28;20301;-78
2022/06/15 01:25:37;;;;;;;9.97;7.37;;;13.60;99.90;;;;;;5036436;28;20693;-80
2022/06/15 01:28:27;;;;;;;10.30;7.50;;;13.50;99.90;;;;;;5039881;28;20217;-80
2022/06/15 01:30:53;;;;;;;13.43;8.40;;;13.50;99.90;;;;;;5039280;28;20402;-79
2022/06/15 01:33:34;;;;;;;11.17;7.90;;;13.50;99.90;;;;;;5037416;28;20312;-80
2022/06/15 01:36:06;;;;;;;10.20;8.37;;;13.40;99.90;;;;;;5040640;28;20209;-79
2022/06/15 01:39:01;;;;;;;11.30;7.63;;;13.40;99.90;;;;;;5041449;28;20322;-79
2022/06/15 01:42:00;;;;;;;10.00;7.63;;;13.30;99.90;;;;;;5032085;28;20212;-79
2022/06/15 01:44:31;;;;;;;10.10;8.00;;;13.20;99.90;;;;;;5039959;28;20216;-79
2022/06/15 01:47:02;;;;;;;11.83;9.03;;;13.20;99.90;;;;;;5039273;28;20671;-78
2022/06/15 01:49:40;;;;;;;10.27;7.90;;;13.20;99.90;;;;;;5037364;28;20684;-79
2022/06/15 01:52:11;;;;;;;13.20;8.67;;;13.10;99.90;;;;;;5037233;28;20209;-79
2022/06/15 01:54:46;;;;;;;12.23;7.97;;;13.10;99.90;;;;;;5036236;28;20309;-79
2022/06/15 01:57:15;;;;;;;9.43;7.73;;;13.10;99.90;;;;;;5038116;28;20732;-79
2022/06/15 01:59:50;;;;;;;9.70;7.93;;;13.00;99.90;;;;;;5039102;28;20216;-79
2022/06/15 02:02:30;;;;;;;10.07;7.97;;;13.00;99.90;;;;;;5044347;28;20284;-79
2022/06/15 02:05:19;;;;;;;13.03;8.13;;;13.00;99.90;;;;;;5038272;28;20212;-77
2022/06/15 02:08:15;;;;;;;12.73;8.83;;;12.90;99.90;;;;;;5037792;28;20208;-79
2022/06/15 02:10:58;;;;;;;11.07;8.33;;;12.90;99.90;;;;;;5039495;28;20231;-78
2022/06/15 02:13:59;;;;;;;9.30;7.80;;;12.80;99.90;;;;;;5038926;28;20217;-78
2022/06/15 02:16:40;;;;;;;10.43;8.07;;;12.80;99.90;;;;;;5041969;28;20615;-78
2022/06/15 02:19:12;;;;;;;8.63;7.27;;;12.70;99.90;;;;;;5038578;28;20214;-78
2022/06/15 02:21:42;;;;;;;11.97;8.07;;;12.70;99.90;;;;;;5035417;28;20613;-79
2022/06/15 02:24:11;;;;;;;14.87;8.63;;;12.70;99.90;;;;;;5032725;28;20227;-79
2022/06/15 02:26:39;;;;;;;13.37;8.70;;;12.60;99.90;;;;;;5039854;28;20603;-79
2022/06/15 02:29:12;;;;;;;12.60;8.20;;;12.60;99.90;;;;;;5039965;28;20211;-78
2022/06/15 02:31:40;;;;;;;15.33;9.27;;;12.60;99.90;;;;;;5036507;28;20199;-79
2022/06/15 02:34:07;;;;;;;10.40;8.10;;;12.60;99.90;;;;;;5036988;28;20206;-79
2022/06/15 02:36:35;;;;;;;8.90;7.60;;;12.50;99.90;;;;;;5039834;28;20566;-80
2022/06/15 02:39:04;;;;;;;12.07;8.63;;;12.50;99.90;;;;;;5041879;28;20266;-80
2022/06/15 02:41:31;;;;;;;11.03;8.73;;;12.50;99.90;;;;;;5033708;28;20604;-79
2022/06/15 02:44:00;;;;;;;9.40;7.57;;;12.40;99.90;;;;;;5042291;28;20290;-79
2022/06/15 02:46:29;;;;;;;13.80;8.13;;;12.40;99.90;;;;;;5046080;28;20209;-81
2022/06/15 02:48:57;;;;;;;9.43;7.77;;;12.30;99.90;;;;;;5045344;28;20267;-79
2022/06/15 02:51:31;;;;;;;7.10;6.33;;;12.30;99.90;;;;;;5073205;28;20564;-79
2022/06/15 02:54:09;;;;;;;10.47;8.27;;;12.30;99.90;;;;;;5038851;28;20210;-79
2022/06/15 02:56:37;;;;;;;11.20;7.67;;;12.20;99.90;;;;;;5071754;28;20206;-78
2022/06/15 02:59:06;;;;;;;11.27;6.77;;;12.20;99.90;;;;;;5041029;28;20214;-78
2022/06/15 03:01:35;;;;;;;13.47;9.33;;;12.20;99.90;;;;;;5048245;28;20716;-79
2022/06/15 03:04:03;;;;;;;11.43;7.97;;;12.20;99.90;;;;;;5040189;28;20316;-79
2022/06/15 03:06:31;;;;;;;11.87;7.93;;;12.20;99.90;;;;;;5042590;28;20604;-80
2022/06/15 03:08:58;;;;;;;11.10;7.40;;;12.10;99.90;;;;;;5041731;28;20281;-79
2022/06/15 03:11:26;;;;;;;12.43;8.30;;;12.10;99.90;;;;;;5040348;28;20276;-79
2022/06/15 03:13:54;;;;;;;10.00;7.83;;;12.10;99.90;;;;;;5038844;28;20356;-80
2022/06/15 03:16:21;;;;;;;11.20;8.10;;;12.00;99.90;;;;;;5043814;28;20213;-79
2022/06/15 03:18:49;;;;;;;12.63;7.63;;;12.00;99.90;;;;;;5042281;28;20216;-79
2022/06/15 03:21:16;;;;;;;8.90;6.57;;;12.00;99.90;;;;;;5039255;28;20237;-79
2022/06/15 03:23:43;;;;;;;12.07;7.07;;;12.00;99.90;;;;;;5039559;28;20226;-78
2022/06/15 03:26:09;;;;;;;12.20;8.37;;;12.00;99.90;;;;;;5042160;28;20226;-79
2022/06/15 03:28:36;;;;;;;7.67;6.57;;;11.90;99.90;;;;;;5043356;28;20715;-79
2022/06/15 03:31:03;;;;;;;9.67;7.17;;;11.90;99.90;;;;;;5040569;28;20212;-79
2022/06/15 03:33:30;;;;;;;10.07;8.00;;;11.90;99.90;;;;;;5043422;28;20659;-79
2022/06/15 03:35:57;;;;;;;11.73;8.20;;;11.80;99.90;;;;;;5039766;28;20210;-79
2022/06/15 03:38:27;;;;;;;9.83;8.43;;;11.80;99.90;;;;;;5042153;28;20210;-78
2022/06/15 03:40:54;;;;;;;11.50;7.90;;;11.80;99.90;;;;;;5048619;28;20219;-80
2022/06/15 03:43:21;;;;;;;9.43;7.20;;;11.80;99.90;;;;;;5051527;28;20232;-78
2022/06/15 03:45:48;;;;;;;9.00;7.13;;;11.90;99.90;;;;;;5054316;28;20203;-78
2022/06/15 03:48:16;;;;;;;10.00;8.00;;;11.80;99.90;;;;;;5053852;28;20277;-80
2022/06/15 03:50:43;;;;;;;10.67;7.30;;;11.80;99.90;;;;;;5047953;28;20684;-79
2022/06/15 03:53:11;;;;;;;13.73;8.00;;;11.80;99.90;;;;;;5054354;28;20221;-76
2022/06/15 03:55:40;;;;;;;13.07;8.60;;;11.80;99.90;;;;;;5041935;28;20347;-79
2022/06/15 03:58:09;;;;;;;10.73;7.27;;;11.80;99.90;;;;;;5041484;28;20317;-78
2022/06/15 04:00:36;;;;;;;9.93;7.57;;;11.80;99.90;;;;;;5039387;28;20206;-79
2022/06/15 04:03:03;;;;;;;9.77;7.53;;;11.80;99.90;;;;;;5049600;28;20234;-79
2022/06/15 04:05:36;;;;;;;11.73;8.30;;;11.80;99.90;;;;;;5047643;28;20257;-79
2022/06/15 04:10:49;;;;;;;13.10;8.53;;;11.90;99.90;;;;;;5031564;28;20229;-79
2022/06/15 04:13:16;;;;;;;11.27;8.40;;;11.90;99.90;;;;;;5030665;28;20218;-79
2022/06/15 04:15:43;;;;;;;12.17;8.67;;;11.90;99.90;;;;;;5030933;28;20210;-79
2022/06/15 04:18:10;;;;;;;10.63;8.03;;;11.90;99.90;;;;;;5052378;28;20670;-79
2022/06/15 04:20:41;;;;;;;11.27;8.43;;;12.00;99.90;;;;;;5030118;28;20213;-78
2022/06/15 04:23:15;;;;;;;13.43;8.53;;;12.00;99.90;;;;;;5030276;28;20238;-78
2022/06/15 04:25:48;;;;;;;10.73;8.40;;;12.00;99.90;;;;;;5029996;28;20756;-77
2022/06/15 04:28:16;;;;;;;11.17;8.63;;;12.00;99.90;;;;;;5038264;28;20618;-79
2022/06/15 04:30:43;;;;;;;10.30;8.37;;;12.00;99.90;;;;;;5029731;28;20526;-77
2022/06/15 04:33:10;;;;;;;11.77;8.70;;;12.10;99.90;;;;;;5030892;28;20273;-78
2022/06/15 04:35:37;;;;;;;12.90;8.17;;;12.10;99.90;;;;;;5040776;28;20320;-81
2022/06/15 04:38:04;;;;;;;10.20;7.93;;;12.10;99.90;;;;;;5040396;28;20216;-79
2022/06/15 04:40:31;;;;;;;12.97;8.57;;;12.10;99.90;;;;;;5042032;28;20222;-80
2022/06/15 04:42:58;;;;;;;11.73;8.40;;;12.10;99.90;;;;;;5038026;28;20266;-79
2022/06/15 04:45:25;;;;;;;9.73;7.80;;;12.40;99.90;;;;;;5041229;28;20205;-78
2022/06/15 04:47:55;;;;;;;11.10;8.53;;;12.40;99.90;;;;;;5039604;28;20211;-79
2022/06/15 04:50:22;;;;;;;12.23;9.10;;;12.30;99.90;;;;;;5036520;28;20217;-78
2022/06/15 04:52:49;;;;;;;13.17;9.47;;;12.40;99.90;;;;;;5039319;28;20253;-79
2022/06/15 04:55:19;;;;;;;9.83;8.67;;;12.40;99.90;;;;;;5041228;28;20238;-79
2022/06/15 04:57:46;;;;;;;12.47;9.03;;;12.50;99.90;;;;;;5041260;28;20256;-79
2022/06/15 05:00:16;;;;;;;12.50;9.57;;;12.60;99.90;;;;;;5039792;28;20207;-78
2022/06/15 05:02:44;;;;;;;13.40;8.90;;;12.60;99.90;;;;;;5039040;28;20332;-78
2022/06/15 05:05:11;;;;;;;12.33;9.17;;;12.70;99.90;;;;;;5040639;28;20221;-79
2022/06/15 05:07:38;;;;;;;11.30;9.43;;;12.80;99.90;;;;;;5037227;28;20208;-78
2022/06/15 05:10:06;;;;;;;10.40;9.20;;;12.90;99.90;;;;;;5040665;28;20244;-79
2022/06/15 05:12:33;;;;;;;15.03;10.13;;;12.90;99.90;;;;;;5039880;28;20607;-79
2022/06/15 05:15:00;;;;;;;13.33;10.30;;;13.00;99.90;;;;;;5039184;28;20703;-80
2022/06/15 05:17:34;;;;;;;11.33;9.43;;;13.10;99.90;;;;;;5041654;28;20250;-79
2022/06/15 05:20:01;;;;;;;14.77;9.83;;;13.20;99.90;;;;;;5037152;28;20218;-79
2022/06/15 05:22:28;;;;;;;11.70;9.37;;;13.30;99.90;;;;;;5036918;28;20218;-79
2022/06/15 05:24:55;;;;;;;12.53;8.00;;;13.40;99.90;;;;;;5036766;28;20597;-79
2022/06/15 05:27:22;;;;;;;11.97;7.47;;;14.10;99.90;;;;;;5038954;28;20731;-78
2022/06/15 05:29:48;;;;;;;8.70;6.80;;;15.30;99.90;;;;;;5039993;28;20734;-79
2022/06/15 05:32:15;;;;;;;7.85;5.68;;;16.60;99.90;;;;;;5036594;28;20214;-78
2022/06/15 05:34:42;;;;;;;9.02;5.90;;;17.80;99.90;;;;;;5039559;28;20201;-79
2022/06/15 05:37:09;;;;;;;7.28;5.65;;;19.30;99.90;;;;;;5036641;28;20236;-79
2022/06/15 05:39:36;;;;;;;7.97;5.43;;;20.20;99.90;;;;;;5038334;28;20674;-79
2022/06/15 05:42:04;;;;;;;6.72;5.20;;;21.30;99.90;;;;;;5034633;28;20209;-79
2022/06/15 05:47:10;;;;;;;8.38;5.00;;;22.90;99.90;;;;;;5036138;28;20613;-80
2022/06/15 05:49:38;;;;;;;11.55;5.22;;;23.50;99.90;;;;;;5038696;28;20735;-78
2022/06/15 05:52:06;;;;;;;7.05;4.90;;;;;;;;;;5036903;28;20723;-78
2022/06/15 05:54:32;;;;;;;9.20;5.30;;;24.90;99.90;;;;;;5036328;28;20226;-79
2022/06/15 05:56:59;;;;;;;6.63;4.82;;;25.50;99.90;;;;;;5036298;28;20210;-78
2022/06/15 05:59:26;;;;;;;4.63;3.88;;;26.20;99.90;;;;;;5039348;28;20221;-78
2022/06/15 06:01:53;;;;;;;6.50;4.40;;;26.80;99.90;;;;;;5037832;28;20579;-78
2022/06/15 06:04:20;;;;;;;7.28;4.72;;;27.20;99.90;;;;;;5037708;28;20221;-77
2022/06/15 06:06:50;;;;;;;5.90;4.60;;;27.50;99.90;;;;;;5040376;28;20279;-79
2022/06/15 06:09:17;;;;;;;6.72;4.60;;;27.70;99.20;;;;;;5035954;28;20229;-77
2022/06/15 06:11:43;;;;;;;7.22;4.43;;;28.00;98.50;;;;;;5039386;28;20325;-78
2022/06/15 06:14:10;;;;;;;7.45;4.60;;;28.10;97.90;;;;;;5036369;28;20648;-78
2022/06/15 06:16:37;;;;;;;6.88;4.90;;;28.40;96.60;;;;;;5037643;28;20667;-75
2022/06/15 06:19:04;;;;;;;9.00;4.78;;;28.80;96.00;;;;;;5037651;28;20617;-77
2022/06/15 06:21:31;;;;;;;7.78;4.75;;;29.10;95.10;;;;;;5067994;28;20207;-77
2022/06/15 06:23:58;;;;;;;5.20;4.28;;;29.20;94.60;;;;;;5038660;28;20716;-78
2022/06/15 06:26:31;;;;;;;6.60;4.18;;;29.50;93.50;;;;;;5035836;28;20650;-77
2022/06/15 06:28:59;;;;;;;8.75;4.65;;;29.70;92.70;;;;;;5037074;28;20212;-77
2022/06/15 06:31:27;;;;;;;5.05;4.32;;;29.80;92.10;;;;;;5038580;28;20221;-78
2022/06/15 06:33:55;;;;;;;5.10;4.15;;;29.80;91.80;;;;;;5037115;28;20599;-78
2022/06/15 06:36:40;;;;;;;5.68;3.78;;;29.90;91.10;;;;;;5036137;28;20210;-76
2022/06/15 06:39:27;;;;;;;5.50;4.00;;;30.00;89.40;;;;;;5066707;28;20206;-78
2022/06/15 06:41:55;;;;;;;5.60;4.63;;;30.10;89.80;;;;;;5035739;28;20217;-77
2022/06/15 06:44:23;;;;;;;9.23;4.82;;;30.20;89.90;;;;;;5038422;28;20229;-78
2022/06/15 06:46:51;;;;;;;6.25;4.97;;;30.10;88.80;;;;;;5037170;28;20758;-79
2022/06/15 06:49:20;;;;;;;6.00;4.60;;;30.00;88.60;;;;;;5038602;28;20295;-76
2022/06/15 06:51:48;;;;;;;7.55;4.90;;;29.90;88.50;;;;;;5039779;28;20651;-79
2022/06/15 06:54:18;;;;;;;7.43;4.20;;;30.10;87.50;;;;;;5039464;28;20512;-78
2022/06/15 06:56:45;;;;;;;6.30;4.50;;;30.10;87.70;;;;;;5035275;28;20344;-77
2022/06/15 06:59:14;;;;;;;6.82;4.32;;;29.90;86.90;;;;;;5038432;28;20630;-77
2022/06/15 07:01:43;;;;;;;8.80;5.03;;;30.00;86.70;;;;;;5067747;28;20662;-76
2022/06/15 07:04:14;;;;;;;4.70;3.75;;;30.10;86.50;;;;;;5039508;28;20240;-79
2022/06/15 07:06:42;;;;;;;7.90;4.53;;;30.20;85.50;;;;;;5036793;28;20210;-77
2022/06/15 07:09:09;;;;;;;7.13;4.47;;;30.20;85.00;;;;;;5038519;28;20608;-78
2022/06/15 07:11:37;;;;;;;7.50;3.90;;;30.20;85.40;;;;;;5039371;28;20640;-77
2022/06/15 07:14:05;;;;;;;5.03;4.18;;;30.20;85.10;;;;;;5040393;28;20210;-77
2022/06/15 07:16:38;;;;;;;5.50;4.13;;;30.50;84.30;;;;;;5038868;28;20666;-77
2022/06/15 07:19:06;;;;;;;5.30;4.00;;;30.60;83.90;;;;;;5041763;28;20224;-78
2022/06/15 07:21:33;;;;;;;7.13;4.30;;;30.70;83.50;;;;;;5041120;28;20669;-78
2022/06/15 07:23:59;;;;;;;7.72;4.03;;;30.60;83.40;;;;;;5038226;28;20754;-77
2022/06/15 07:26:32;;;;;;;6.80;4.07;;;30.70;83.20;;;;;;5040901;28;20267;-77
2022/06/15 07:29:00;;;;;;;5.25;4.18;;;30.90;82.60;;;;;;5037795;28;20214;-78
2022/06/15 07:31:31;;;;;;;8.20;4.07;;;31.10;82.10;;;;;;5042556;28;20220;-77
2022/06/15 07:33:58;;;;;;;7.82;4.70;;;31.40;82.30;;;;;;5043921;28;20260;-78
2022/06/15 07:36:33;;;;;;;8.50;4.78;;;31.50;81.30;;;;;;5040615;28;20218;-78
2022/06/15 07:39:00;;;;;;;7.07;4.70;;;31.60;81.00;;;;;;5042477;28;20240;-77
2022/06/15 07:41:27;;;;;;;4.80;4.07;;;31.80;79.30;;;;;;5040078;28;20213;-77
2022/06/15 07:43:54;;;;;;;5.22;4.18;;;32.10;78.80;;;;;;5042500;28;20236;-77
2022/06/15 07:46:22;;;;;;;8.50;4.45;;;32.20;77.10;;;;;;5041369;28;20209;-76
2022/06/15 07:51:46;;;;;;;9.43;3.92;;;32.00;77.40;;;;;;5040462;28;20653;-79
2022/06/15 07:54:15;;;;;;;5.43;3.63;;;32.00;77.10;;;;;;5041640;28;20225;-77
2022/06/15 07:56:42;;;;;;;9.32;4.80;;;31.90;76.10;;;;;;5042592;28;20211;-79
2022/06/15 07:59:10;;;;;;;5.78;3.50;;;31.70;76.10;;;;;;5039930;28;20259;-78
2022/06/15 08:01:37;;;;;;;6.07;3.45;;;31.40;75.70;;;;;;5040383;28;20663;-77
2022/06/15 08:04:04;;;;;;;4.80;3.03;;;31.10;76.80;;;;;;5041545;28;20225;-78
2022/06/15 08:06:32;;;;;;;5.72;2.45;;;30.80;76.80;;;;;;5072874;28;20205;-76
2022/06/15 08:08:59;;;;;;;7.75;3.50;;;30.90;76.70;;;;;;5039709;28;20232;-78
2022/06/15 08:11:26;;;;;;;6.18;2.60;;;30.90;75.90;;;;;;5039156;28;20551;-77
2022/06/15 08:13:53;;;;;;;4.97;2.65;;;30.90;76.30;;;;;;5041363;28;20235;-78
2022/06/15 08:16:20;;;;;;;4.88;2.70;;;30.90;75.20;;;;;;5037828;28;20218;-77
2022/06/15 08:18:54;;;;;;;5.95;2.42;;;30.80;74.80;;;;;;5040165;28;20585;-77
2022/06/15 08:21:28;;;;;;;5.07;2.20;;;30.80;74.80;;;;;;5040199;28;20217;-78
2022/06/15 08:23:57;;;;;;;5.88;2.70;;;30.90;72.80;;;;;;5038276;28;20229;-79
2022/06/15 08:26:30;;;;;;;6.18;2.63;;;30.90;73.30;;;;;;5040170;28;20213;-77
2022/06/15 08:29:00;;;;;;;6.18;2.13;;;30.80;72.30;;;;;;5040226;28;20549;-79
2022/06/15 08:31:27;;;;;;;7.88;2.20;;;30.70;73.80;;;;;;5037964;28;20309;-77
2022/06/15 08:33:54;;;;;;;2.92;1.60;;;30.80;72.00;;;;;;5041959;28;20280;-77
2022/06/15 08:36:21;;;;;;;5.18;2.03;;;30.80;70.60;;;;;;5038463;28;20217;-78
2022/06/15 08:38:48;;;;;;;7.57;1.90;;;30.70;68.90;;;;;;5039586;28;20236;-78
2022/06/15 08:41:30;;;;;;;3.22;1.95;;;30.40;68.80;;;;;;5036670;28;20755;-77
2022/06/15 08:44:18;;;;;;;8.23;2.40;;;30.10;69.70;;;;;;5038474;28;20283;-77
2022/06/15 08:47:19;;;;;;;7.13;2.70;;;29.90;70.80;;;;;;5038801;28;20213;-77
2022/06/15 08:49:46;;;;;;;4.68;2.38;;;29.70;70.00;;;;;;5040843;28;20240;-77
2022/06/15 08:52:22;;;;;;;6.35;2.47;;;29.60;72.10;;;;;;5040631;28;20296;-79
2022/06/15 08:55:11;;;;;;;4.13;2.20;;;29.60;71.30;;;;;;5038266;28;20234;-78
2022/06/15 08:57:51;;;;;;;5.50;2.40;;;29.50;71.10;;;;;;5052843;28;20210;-78
2022/06/15 09:00:26;;;;;;;3.83;1.85;;;29.20;71.70;;;;;;5037492;28;20218;-78
2022/06/15 09:03:18;;;;;;;3.60;2.13;;;29.20;72.30;;;;;;5034308;28;20248;-77
2022/06/15 09:06:07;;;;;;;3.58;2.28;;;29.40;72.80;;;;;;5038560;28;20261;-77
2022/06/15 09:08:58;;;;;;;3.53;2.40;;;29.60;73.90;;;;;;5038060;28;20638;-76
2022/06/15 09:11:49;;;;;;;5.43;2.85;;;29.60;72.90;;;;;;5037828;28;20275;-76
2022/06/15 09:14:31;;;;;;;6.22;2.42;;;29.50;70.50;;;;;;5037949;28;20224;-77
2022/06/15 09:17:17;;;;;;;3.53;2.42;;;29.30;72.40;;;;;;5040243;28;20224;-76
2022/06/15 09:20:06;;;;;;;6.80;2.53;;;29.20;71.50;;;;;;5040264;28;20236;-75
2022/06/15 09:22:39;;;;;;;7.30;2.72;;;29.30;73.80;;;;;;5039726;28;20646;-74
2022/06/15 09:25:14;;;;;;;6.05;2.45;;;29.20;74.00;;;;;;5036943;28;20299;-77
2022/06/15 09:28:08;;;;;;;5.07;2.40;;;29.00;73.30;;;;;;5038126;28;20267;-75
2022/06/15 09:30:40;;;;;;;6.22;2.33;;;29.00;73.80;;;;;;5040719;28;20213;-76
2022/06/15 09:33:18;;;;;;;5.22;2.30;;;28.80;73.70;;;;;;5037250;28;20198;-76
2022/06/15 09:36:01;;;;;;;3.85;2.03;;;28.70;73.50;;;;;;5038414;28;20263;-76
2022/06/15 09:38:31;;;;;;;8.20;2.30;;;28.80;74.00;;;;;;5038708;28;20237;-74
2022/06/15 09:41:18;;;;;;;4.38;2.58;;;28.70;74.30;;;;;;5034647;28;20210;-77
2022/06/15 09:44:06;;;;;;;5.03;2.75;;;28.60;74.30;;;;;;5039315;28;20623;-76
2022/06/15 09:47:11;;;;;;;3.58;2.20;;;28.60;74.80;;;;;;5037785;28;20711;-76
2022/06/15 09:49:52;;;;;;;6.53;2.47;;;28.70;73.20;;;;;;5037132;28;20244;-75
2022/06/15 09:52:35;;;;;;;5.57;2.20;;;28.60;73.00;;;;;;5037976;28;20563;-76
2022/06/15 09:55:35;;;;;;;4.82;2.47;;;28.60;73.70;;;;;;5038313;28;21421;-77
2022/06/15 09:58:26;;;;;;;6.05;2.28;;;28.50;72.40;;;;;;5036097;28;20253;-77
2022/06/15 10:00:54;;;;;;;2.55;2.00;;;28.50;73.00;;;;;;5040696;28;20209;-77
2022/06/15 10:03:25;;;;;;;3.50;2.20;;;28.40;72.40;;;;;;5036308;28;20241;-78
2022/06/15 10:06:14;;;;;;;6.97;2.60;;;28.30;71.60;;;;;;5037345;28;20716;-76
2022/06/15 10:08:41;;;;;;;4.03;2.15;;;28.20;74.60;;;;;;5037021;28;20206;-78
2022/06/15 10:11:18;;;;;;;4.00;2.45;;;28.00;73.30;;;;;;5039186;28;20225;-75
2022/06/15 10:13:46;;;;;;;6.03;2.17;;;27.70;71.70;;;;;;5039682;28;20299;-77
2022/06/15 10:16:20;;;;;;;5.72;2.40;;;27.40;73.30;;;;;;5036969;28;20271;-77
2022/06/15 10:18:51;;;;;;;6.38;2.40;;;27.30;72.60;;;;;;5037657;28;20600;-76
2022/06/15 10:21:20;;;;;;;4.53;2.22;;;27.20;74.10;;;;;;5039103;28;20213;-77
2022/06/15 10:23:59;;;;;;;3.25;2.25;;;27.20;73.70;;;;;;5040361;28;20209;-77
2022/06/15 10:26:32;;;;;;;4.40;2.50;;;27.20;72.40;;;;;;5038684;28;20661;-77
2022/06/15 10:29:18;;;;;;;5.53;2.55;;;27.30;73.90;;;;;;5036037;28;20206;-77
2022/06/15 10:31:57;;;;;;;5.30;2.53;;;27.30;72.50;;;;;;5068900;28;20303;-76
2022/06/15 10:34:36;;;;;;;6.22;2.58;;;27.20;71.40;;;;;;5038918;28;20640;-77
2022/06/15 10:37:19;;;;;;;4.75;2.97;;;27.10;72.50;;;;;;5037092;28;20228;-76
2022/06/15 10:39:52;;;;;;;8.88;2.67;;;27.20;74.20;;;;;;5037392;28;20636;-77
2022/06/15 10:42:19;;;;;;;4.63;2.08;;;27.40;74.60;;;;;;5035626;28;20205;-78
2022/06/15 10:44:53;;;;;;;5.00;1.95;;;27.60;73.20;;;;;;5037435;28;20229;-76
2022/06/15 10:47:24;;;;;;;2.83;1.73;;;27.80;72.80;;;;;;5036253;28;20201;-77
2022/06/15 10:49:59;;;;;;;3.38;1.65;;;27.80;72.10;;;;;;5038937;28;20213;-77
2022/06/15 10:52:50;;;;;;;5.80;2.28;;;27.80;71.50;;;;;;5037863;28;20216;-77
2022/06/15 11:04:10;;;;;;;2.55;1.75;;;27.40;70.40;;;;;;5036957;28;20206;-78
2022/06/15 11:06:41;;;;;;;3.85;2.00;;;27.40;73.10;;;;;;5040571;28;20641;-77
2022/06/15 11:09:21;;;;;;;4.93;2.33;;;27.50;73.20;;;;;;5042273;28;20228;-78
2022/06/15 11:11:50;;;;;;;3.72;2.08;;;27.60;73.30;;;;;;5041280;28;20298;-77
2022/06/15 11:14:42;;;;;;;4.88;1.90;;;27.50;72.50;;;;;;5041462;28;20274;-78
2022/06/15 11:20:28;;;;;;;3.53;1.98;;;27.60;72.10;;;;;;5042651;28;20212;-78
2022/06/15 11:23:03;;;;;;;4.32;2.17;;;27.50;72.20;;;;;;5042619;28;20649;-77
2022/06/15 11:25:46;;;;;;;5.13;2.60;;;27.50;72.00;;;;;;5040733;28;20309;-73
2022/06/15 11:28:24;;;;;;;5.05;2.40;;;27.40;71.20;;;;;;5038674;28;20206;-77
2022/06/15 11:30:58;;;;;;;3.63;2.25;;;27.40;72.10;;;;;;5041234;28;20224;-76
2022/06/15 11:33:43;;;;;;;4.40;2.08;;;27.50;72.20;;;;;;5041986;28;20334;-77
2022/06/15 11:36:25;;;;;;;5.80;2.20;;;27.60;72.20;;;;;;5041598;28;20220;-76
2022/06/15 11:38:59;;;;;;;5.05;2.72;;;27.70;72.40;;;;;;5039762;28;20253;-76
2022/06/15 11:41:49;;;;;;;4.28;3.08;;;27.80;71.40;;;;;;5038364;28;20213;-76
2022/06/15 11:44:22;;;;;;;3.55;1.73;;;27.60;70.80;;;;;;5041447;28;20224;-73
2022/06/15 11:47:04;;;;;;;3.58;2.10;;;27.50;72.60;;;;;;5039144;28;20304;-78
2022/06/15 11:49:49;;;;;;;2.85;2.03;;;27.70;71.90;;;;;;5038765;28;20214;-77
2022/06/15 11:52:34;;;;;;;3.10;1.90;;;27.70;70.60;;;;;;5040659;28;20258;-78
2022/06/15 11:55:14;;;;;;;3.13;2.20;;;27.80;69.90;;;;;;5039612;28;20261;-76
2022/06/15 11:57:45;;;;;;;3.88;2.00;;;27.90;72.70;;;;;;5053989;28;20240;-77
2022/06/15 12:00:22;;;;;;;4.20;1.95;;;28.00;72.50;;;;;;5040134;28;20207;-78
2022/06/15 12:02:54;;;;;;;3.72;2.00;;;28.00;71.50;;;;;;5037424;28;20705;-77
2022/06/15 12:05:47;;;;;;;2.85;1.95;;;28.10;71.50;;;;;;5039617;28;20265;-76
2022/06/15 12:08:36;;;;;;;3.35;2.22;;;28.10;71.40;;;;;;5039543;28;20202;-76
2022/06/15 12:14:56;;;;;;;2.70;1.60;;;28.10;70.00;;;;;;5039452;28;20342;-77
2022/06/15 12:17:46;;;;;;;3.63;1.95;;;28.10;70.20;;;;;;5038218;28;20213;-77
2022/06/15 12:20:36;;;;;;;5.80;2.00;;;28.10;70.40;;;;;;5040456;28;20567;-78
2022/06/15 12:23:37;;;;;;;2.55;1.90;;;28.20;70.20;;;;;;5039856;28;20213;-77
2022/06/15 12:26:27;;;;;;;5.15;2.28;;;28.20;71.60;;;;;;5040898;28;20232;-77
2022/06/15 12:29:07;;;;;;;2.95;1.85;;;28.20;69.60;;;;;;5041210;28;20208;-78
2022/06/15 12:31:53;;;;;;;6.00;2.00;;;28.10;72.00;;;;;;5038242;28;20215;-75
2022/06/15 12:34:27;;;;;;;3.35;1.77;;;28.20;71.50;;;;;;5039673;28;20687;-77
2022/06/15 12:37:23;;;;;;;3.58;1.70;;;28.20;71.00;;;;;;5036503;28;20256;-79
2022/06/15 12:40:20;;;;;;;2.90;1.90;;;28.30;71.60;;;;;;5051590;28;20220;-77
2022/06/15 12:42:51;;;;;;;4.63;2.10;;;28.40;70.90;;;;;;5037235;28;20209;-77
2022/06/15 12:45:32;;;;;;;3.20;1.95;;;28.60;70.30;;;;;;5038614;28;20279;-77
2022/06/15 12:48:05;;;;;;;3.97;1.58;;;28.60;69.70;;;;;;5038183;28;20303;-78
2022/06/15 12:50:46;;;;;;;3.17;1.52;;;28.60;70.50;;;;;;5038248;28;20734;-76
2022/06/15 12:53:20;;;;;;;6.75;1.88;;;28.40;69.10;;;;;;5037826;28;20271;-78
2022/06/15 12:55:52;;;;;;;3.50;1.58;;;28.40;68.60;;;;;;5037577;28;20591;-77
2022/06/15 12:58:54;;;;;;;4.13;1.85;;;28.40;68.20;;;;;;5028460;28;20332;-79
2022/06/15 13:01:31;;;;;;;4.63;2.13;;;28.60;70.00;;;;;;5032724;28;20494;-79
2022/06/15 13:04:07;;;;;;;4.13;2.00;;;28.60;68.00;;;;;;5034729;28;20291;-77
2022/06/15 13:06:39;;;;;;;3.33;2.00;;;28.70;68.00;;;;;;5038866;28;20230;-77
2022/06/15 13:09:14;;;;;;;2.90;1.80;;;28.80;67.60;;;;;;5036746;28;20684;-77
2022/06/15 13:12:07;;;;;;;5.68;1.88;;;28.80;67.90;;;;;;5037415;28;20600;-78
2022/06/15 13:14:48;;;;;;;3.90;1.85;;;28.90;69.40;;;;;;5037997;28;20204;-76
2022/06/15 13:17:29;;;;;;;4.30;2.05;;;28.90;68.70;;;;;;5038672;28;20656;-79
2022/06/15 13:20:06;;;;;;;2.75;1.65;;;29.00;67.50;;;;;;5041061;28;20540;-76
2022/06/15 13:22:40;;;;;;;2.88;1.58;;;29.00;67.10;;;;;;5038118;28;20209;-78
2022/06/15 13:25:17;;;;;;;4.57;2.08;;;29.10;66.80;;;;;;5037608;28;20236;-79
2022/06/15 13:27:47;;;;;;;4.43;2.05;;;29.10;67.50;;;;;;5035107;28;20758;-77
2022/06/15 13:30:31;;;;;;;4.07;2.17;;;29.20;67.50;;;;;;5038508;28;20610;-78
2022/06/15 13:33:07;;;;;;;3.95;1.98;;;29.20;65.00;;;;;;5036248;28;20210;-78
2022/06/15 13:36:06;;;;;;;2.47;1.65;;;29.20;65.70;;;;;;5037722;28;20207;-77
2022/06/15 13:38:35;;;;;;;3.67;2.03;;;29.20;65.70;;;;;;5039336;28;20224;-78
2022/06/15 13:41:07;;;;;;;2.03;1.60;;;29.20;65.40;;;;;;5032516;28;20210;-76